createdAt,value
2023-02-01T12:29:56.625Z,85.13
2023-02-01T12:32:44.703Z,83.53
2023-02-01T12:35:40.996Z,83.68
2023-02-01T12:38:26.597Z,83.68
2023-02-01T12:41:19.555Z,83.65
2023-02-01T12:44:07.730Z,82.45
2023-02-01T12:46:58.969Z,83.65
2023-02-01T12:49:44.518Z,81.40
2023-02-01T12:52:24.309Z,75.82
2023-02-01T12:55:00.921Z,77.88
2023-02-01T12:57:34.716Z,81.40
2023-02-01T13:00:23.573Z,80.70
2023-02-01T13:03:08.736Z,79.55
2023-02-01T13:05:55.252Z,80.22
2023-02-01T13:08:30.290Z,84.28
2023-02-01T13:11:06.036Z,83.60
2023-02-01T13:14:01.862Z,81.28
2023-02-01T13:16:33.671Z,79.97
2023-02-01T13:19:15.225Z,80.68
2023-02-01T13:21:47.759Z,82.85
2023-02-01T13:24:30.966Z,80.93
2023-02-01T13:26:58.129Z,79.38
2023-02-01T13:29:26.624Z,79.80
2023-02-01T13:33:50.363Z,82.20
2023-02-01T13:35:28.241Z,83.32
2023-02-01T13:38:16.218Z,84.07
2023-02-01T13:40:47.612Z,81.55
2023-02-01T13:43:27.537Z,84.05
2023-02-01T13:45:58.925Z,85.05
2023-02-01T13:48:34.974Z,80.95
2023-02-01T13:51:02.576Z,82.35
2023-02-01T13:53:40.888Z,86.05
2023-02-01T13:56:23.088Z,84.20
2023-02-01T13:58:50.051Z,85.30
2023-02-01T14:01:22.742Z,83.55
2023-02-01T14:03:52.699Z,83.60
2023-02-01T14:06:28.734Z,81.20
2023-02-01T14:09:12.580Z,84.90
2023-02-01T14:11:46.452Z,85.38
2023-02-01T14:14:16.080Z,85.55
2023-02-01T14:17:03.088Z,82.05
2023-02-01T14:19:35.076Z,82.47
2023-02-01T14:22:22.095Z,82.38
2023-02-01T14:24:57.504Z,84.53
2023-02-01T14:27:36.911Z,83.78
2023-02-01T14:30:08.835Z,83.93
2023-02-01T14:32:41.951Z,84.60
2023-02-01T14:35:22.087Z,88.70
2023-02-01T14:37:54.616Z,78.22
2023-02-01T14:40:26.095Z,82.13
2023-02-01T14:42:54.072Z,81.93
2023-02-01T14:45:23.135Z,85.20
2023-02-01T14:47:56.660Z,83.00
2023-02-01T14:50:38.549Z,86.38
2023-02-01T14:53:11.548Z,82.15
2023-02-01T14:55:59.886Z,85.25
2023-02-01T14:58:54.497Z,84.28
2023-02-01T15:01:33.422Z,82.90
2023-02-01T15:04:19.372Z,81.05
2023-02-01T15:06:52.489Z,80.38
2023-02-01T15:09:30.595Z,80.18
2023-02-01T15:12:12.429Z,82.82
2023-02-01T15:14:42.027Z,82.38
2023-02-01T15:17:27.028Z,80.90
2023-02-01T15:19:58.807Z,81.18
2023-02-01T15:22:27.008Z,78.40
2023-02-01T15:25:01.458Z,81.28
2023-02-01T15:27:29.857Z,81.97
2023-02-01T15:30:07.085Z,82.22
2023-02-01T15:32:39.201Z,80.43
2023-02-01T15:35:07.147Z,82.07
2023-02-01T15:37:33.986Z,81.28
2023-02-01T15:40:10.662Z,84.93
2023-02-01T15:42:50.697Z,83.03
2023-02-01T15:45:29.675Z,82.60
2023-02-01T15:47:58.906Z,78.18
2023-02-01T15:50:27.282Z,81.28
2023-02-01T15:52:56.703Z,77.47
2023-02-01T15:55:42.328Z,75.47
2023-02-01T15:58:24.513Z,76.88
2023-02-01T16:00:55.222Z,77.32
2023-02-01T16:03:36.595Z,72.80
2023-02-01T16:06:09.361Z,74.65
2023-02-01T16:08:38.076Z,77.05
2023-02-01T16:11:10.761Z,76.25
2023-02-01T16:16:08.920Z,75.60
2023-02-01T16:18:35.859Z,75.85
2023-02-01T16:21:03.011Z,76.68
2023-02-01T16:23:32.672Z,76.32
2023-02-01T16:25:59.535Z,81.07
2023-02-01T16:28:27.093Z,78.13
2023-02-01T16:30:54.213Z,75.72
2023-02-01T16:33:23.253Z,78.55
2023-02-01T16:35:51.122Z,79.05
2023-02-01T16:38:22.333Z,76.07
2023-02-01T16:40:50.667Z,80.57
2023-02-01T16:43:23.145Z,76.53
2023-02-01T16:45:51.581Z,74.90
2023-02-01T16:48:27.393Z,77.88
2023-02-01T16:51:01.026Z,75.40
2023-02-01T16:53:30.974Z,77.07
2023-02-01T16:56:01.322Z,77.60
2023-02-01T16:58:30.627Z,79.60
2023-02-01T17:00:57.419Z,79.45
2023-02-01T17:03:24.233Z,74.85
2023-02-01T17:05:55.337Z,77.00
2023-02-01T17:08:30.988Z,72.45
2023-02-01T17:10:58.651Z,72.35
2023-02-01T17:13:25.774Z,75.50
2023-02-01T17:15:59.319Z,77.43
2023-02-01T17:18:31.613Z,78.80
2023-02-01T17:20:59.969Z,80.57
2023-02-01T17:23:28.930Z,73.97
2023-02-01T17:25:57.325Z,73.25
2023-02-01T17:28:24.723Z,76.25
2023-02-01T17:30:51.633Z,78.85
2023-02-01T17:33:26.296Z,76.47
2023-02-01T17:35:55.550Z,79.97
2023-02-01T17:38:23.231Z,74.82
2023-02-01T17:40:50.085Z,80.72
2023-02-01T17:43:21.716Z,83.78
2023-02-01T17:46:01.555Z,77.75
2023-02-01T17:48:31.388Z,81.07
2023-02-01T17:51:00.966Z,73.53
2023-02-01T17:53:29.357Z,79.05
2023-02-01T17:55:58.339Z,90.30
2023-02-01T17:58:26.471Z,93.50
2023-02-01T18:00:54.369Z,88.55
2023-02-01T18:03:23.747Z,91.05
2023-02-01T18:05:53.558Z,88.88
2023-02-01T18:08:26.047Z,90.05
2023-02-01T18:11:02.063Z,87.38
2023-02-01T18:13:30.115Z,85.82
2023-02-01T18:15:59.829Z,78.65
2023-02-01T18:18:26.781Z,59.83
2023-02-01T18:20:53.529Z,76.88
2023-02-01T18:23:23.281Z,78.28
2023-02-01T18:25:52.450Z,80.97
2023-02-01T18:28:20.227Z,80.18
2023-02-01T18:30:50.742Z,79.28
2023-02-01T18:33:20.663Z,76.10
2023-02-01T18:35:47.885Z,78.53
2023-02-01T18:38:15.004Z,78.70
2023-02-01T18:41:01.056Z,75.80
2023-02-01T18:43:27.841Z,79.03
2023-02-01T18:45:55.585Z,79.55
2023-02-01T18:48:23.040Z,77.70
2023-02-01T18:50:57.190Z,79.18
2023-02-01T18:53:27.206Z,82.15
2023-02-01T18:55:55.805Z,90.82
2023-02-01T18:58:26.397Z,84.93
2023-02-01T19:00:55.021Z,81.65
2023-02-01T19:03:26.159Z,80.25
2023-02-01T19:05:56.030Z,83.57
2023-02-01T19:08:24.509Z,83.65
2023-02-01T19:10:52.016Z,83.05
2023-02-01T19:13:23.439Z,85.75
2023-02-01T19:15:53.124Z,89.57
2023-02-01T19:18:22.741Z,83.40
2023-02-01T19:20:54.921Z,79.97
2023-02-01T19:23:22.221Z,80.78
2023-02-01T19:25:51.222Z,86.90
2023-02-01T19:28:18.047Z,79.43
2023-02-01T19:30:45.166Z,85.32
2023-02-01T19:33:12.415Z,88.80
2023-02-01T19:35:39.539Z,85.50
2023-02-01T19:38:06.870Z,80.13
2023-02-01T19:40:33.899Z,81.18
2023-02-01T19:43:00.765Z,81.05
2023-02-01T19:45:27.587Z,84.30
2023-02-01T19:47:54.415Z,82.78
2023-02-01T19:50:22.378Z,85.55
2023-02-01T19:52:49.652Z,82.57
2023-02-01T19:55:16.562Z,83.70
2023-02-01T19:57:45.029Z,74.50
2023-02-01T20:00:17.776Z,76.28
2023-02-01T20:02:44.732Z,76.97
2023-02-01T20:05:11.803Z,79.72
2023-02-01T20:07:39.107Z,77.25
2023-02-01T20:10:07.127Z,80.72
2023-02-01T20:12:34.003Z,80.30
2023-02-01T20:15:00.994Z,76.68
2023-02-01T20:17:27.919Z,77.10
2023-02-01T20:19:54.901Z,74.68
2023-02-01T20:22:21.772Z,72.80
2023-02-01T20:24:48.522Z,75.65
2023-02-01T20:27:17.500Z,78.88
2023-02-01T20:29:44.701Z,78.43
2023-02-01T20:32:11.598Z,84.05
2023-02-01T20:34:38.434Z,84.78
2023-02-01T20:37:05.280Z,76.40
2023-02-01T20:39:32.416Z,79.57
2023-02-01T20:41:59.361Z,79.32
2023-02-01T20:44:26.275Z,70.75
2023-02-01T20:46:53.371Z,75.43
2023-02-01T20:49:20.850Z,76.35
2023-02-01T20:51:47.750Z,73.97
2023-02-01T20:54:14.546Z,73.90
2023-02-01T20:56:41.340Z,76.68
2023-02-01T20:59:10.816Z,80.78
2023-02-01T21:01:38.035Z,75.82
2023-02-01T21:04:04.837Z,78.80
2023-02-01T21:06:31.690Z,75.10
2023-02-01T21:08:58.761Z,69.28
2023-02-01T21:11:25.556Z,73.60
2023-02-01T21:13:52.473Z,74.53
2023-02-01T21:16:21.566Z,73.90
2023-02-01T21:18:53.651Z,73.35
2023-02-01T21:21:21.041Z,74.07
2023-02-01T21:23:50.588Z,76.78
2023-02-01T21:26:22.894Z,75.78
2023-02-01T21:28:51.580Z,79.32
2023-02-01T21:31:21.088Z,70.97
2023-02-01T21:33:49.185Z,72.75
2023-02-01T21:36:19.999Z,76.80
2023-02-01T21:38:51.500Z,79.68
2023-02-01T21:41:42.902Z,81.07
2023-02-01T21:44:14.745Z,80.70
2023-02-01T21:46:42.801Z,79.75
2023-02-01T21:49:13.035Z,74.32
2023-02-01T21:51:40.350Z,73.28
2023-02-01T21:54:10.513Z,70.78
2023-02-01T21:56:38.572Z,65.78
2023-02-01T21:59:05.987Z,59.70
2023-02-01T22:01:33.248Z,65.30
2023-02-01T22:04:00.607Z,72.28
2023-02-01T22:06:34.057Z,70.00
2023-02-01T22:09:01.183Z,66.18
2023-02-01T22:11:28.258Z,63.13
2023-02-01T22:13:55.535Z,68.47
2023-02-01T22:16:25.603Z,72.78
2023-02-01T22:18:53.573Z,69.97
2023-02-01T22:21:21.589Z,73.68
2023-02-01T22:23:54.369Z,72.32
2023-02-01T22:26:22.515Z,62.60
2023-02-01T22:28:49.650Z,64.60
2023-02-01T22:31:17.282Z,71.32
2023-02-01T22:33:47.172Z,70.32
2023-02-01T22:36:17.038Z,72.72
2023-02-01T22:38:45.028Z,69.45
2023-02-01T22:41:12.793Z,66.05
2023-02-01T22:43:40.125Z,72.70
2023-02-01T22:46:19.148Z,70.07
2023-02-01T22:48:47.181Z,73.22
2023-02-01T22:51:17.739Z,70.30
2023-02-01T22:53:44.910Z,69.30
2023-02-01T22:56:13.175Z,70.47
2023-02-01T22:58:40.314Z,71.25
2023-02-01T23:01:11.861Z,68.35
2023-02-01T23:03:39.782Z,73.53
2023-02-01T23:06:08.219Z,76.30
2023-02-01T23:08:35.800Z,72.18
